sensor_id;sensor_type;location;lat;lon;timestamp;pressure;altitude;pressure_sealevel;temperature;humidity
74915;BME280;63475;45.140;-75.616;2023-07-22T00:01:53;99727.56;;;19.84;72.55
74915;BME280;63475;45.140;-75.616;2023-07-22T00:03:56;99734.94;;;19.75;72.31
74915;BME280;63475;45.140;-75.616;2023-07-22T00:06:09;99727.09;;;19.65;72.59
74915;BME280;63475;45.140;-75.616;2023-07-22T00:08:12;99729.53;;;19.60;72.16
74915;BME280;63475;45.140;-75.616;2023-07-22T00:10:15;99734.00;;;19.53;71.92
74915;BME280;63475;45.140;-75.616;2023-07-22T00:12:18;99728.88;;;19.44;71.71
74915;BME280;63475;45.140;-75.616;2023-07-22T00:14:20;99721.59;;;19.29;72.56
74915;BME280;63475;45.140;-75.616;2023-07-22T00:16:23;99721.78;;;19.13;73.24
74915;BME280;63475;45.140;-75.616;2023-07-22T00:18:30;99716.94;;;19.09;73.56
74915;BME280;63475;45.140;-75.616;2023-07-22T00:20:33;99717.88;;;19.01;73.45
74915;BME280;63475;45.140;-75.616;2023-07-22T00:22:35;99713.69;;;18.98;73.79
74915;BME280;63475;45.140;-75.616;2023-07-22T00:24:38;99726.91;;;18.93;74.04
74915;BME280;63475;45.140;-75.616;2023-07-22T00:26:41;99727.25;;;18.90;74.50
74915;BME280;63475;45.140;-75.616;2023-07-22T00:28:44;99727.63;;;18.87;74.46
74915;BME280;63475;45.140;-75.616;2023-07-22T00:30:47;99722.56;;;18.84;74.79
74915;BME280;63475;45.140;-75.616;2023-07-22T00:32:51;99728.53;;;18.80;75.10
74915;BME280;63475;45.140;-75.616;2023-07-22T00:34:53;99726.84;;;18.79;74.97
74915;BME280;63475;45.140;-75.616;2023-07-22T00:36:56;99733.28;;;18.78;74.91
74915;BME280;63475;45.140;-75.616;2023-07-22T00:38:59;99725.06;;;18.71;76.17
74915;BME280;63475;45.140;-75.616;2023-07-22T00:41:01;99736.53;;;18.73;75.30
74915;BME280;63475;45.140;-75.616;2023-07-22T00:43:06;99733.81;;;18.73;75.52
74915;BME280;63475;45.140;-75.616;2023-07-22T00:45:09;99732.13;;;18.72;75.46
74915;BME280;63475;45.140;-75.616;2023-07-22T00:47:12;99737.72;;;18.71;75.48
74915;BME280;63475;45.140;-75.616;2023-07-22T00:49:16;99732.13;;;18.72;75.38
74915;BME280;63475;45.140;-75.616;2023-07-22T00:51:19;99738.56;;;18.71;75.48
74915;BME280;63475;45.140;-75.616;2023-07-22T00:53:23;99743.13;;;18.71;75.70
74915;BME280;63475;45.140;-75.616;2023-07-22T00:55:29;99743.97;;;18.71;75.75
74915;BME280;63475;45.140;-75.616;2023-07-22T00:57:31;99750.22;;;18.72;75.93
74915;BME280;63475;45.140;-75.616;2023-07-22T00:59:34;99745.81;;;18.71;76.07
74915;BME280;63475;45.140;-75.616;2023-07-22T01:01:37;99747.69;;;18.70;76.30
74915;BME280;63475;45.140;-75.616;2023-07-22T01:03:40;99750.38;;;18.70;76.56
74915;BME280;63475;45.140;-75.616;2023-07-22T01:05:43;99757.66;;;18.70;76.73
74915;BME280;63475;45.140;-75.616;2023-07-22T01:07:46;99748.53;;;18.71;76.22
74915;BME280;63475;45.140;-75.616;2023-07-22T01:09:49;99757.66;;;18.70;76.20
74915;BME280;63475;45.140;-75.616;2023-07-22T01:11:51;99762.22;;;18.69;76.71
74915;BME280;63475;45.140;-75.616;2023-07-22T01:13:54;99764.91;;;18.69;76.93
74915;BME280;63475;45.140;-75.616;2023-07-22T01:16:00;99772.72;;;18.64;77.36
74915;BME280;63475;45.140;-75.616;2023-07-22T01:18:03;99767.03;;;18.59;77.65
74915;BME280;63475;45.140;-75.616;2023-07-22T01:20:06;99773.81;;;18.55;77.82
74915;BME280;63475;45.140;-75.616;2023-07-22T01:22:11;99773.50;;;18.50;78.21
74915;BME280;63475;45.140;-75.616;2023-07-22T01:24:15;99774.22;;;18.44;78.52
74915;BME280;63475;45.140;-75.616;2023-07-22T01:26:19;99772.28;;;18.38;79.36
74915;BME280;63475;45.140;-75.616;2023-07-22T01:28:22;99768.59;;;18.30;79.64
74915;BME280;63475;45.140;-75.616;2023-07-22T01:30:24;99773.69;;;18.25;79.84
74915;BME280;63475;45.140;-75.616;2023-07-22T01:32:29;99774.56;;;18.18;80.31
74915;BME280;63475;45.140;-75.616;2023-07-22T01:34:32;99774.94;;;18.15;80.63
74915;BME280;63475;45.140;-75.616;2023-07-22T01:36:34;99776.84;;;18.06;80.98
74915;BME280;63475;45.140;-75.616;2023-07-22T01:38:37;99768.75;;;17.98;81.42
74915;BME280;63475;45.140;-75.616;2023-07-22T01:40:40;99773.19;;;17.91;81.89
74915;BME280;63475;45.140;-75.616;2023-07-22T01:42:42;99770.53;;;17.83;82.21
74915;BME280;63475;45.140;-75.616;2023-07-22T01:44:45;99769.34;;;17.77;82.69
74915;BME280;63475;45.140;-75.616;2023-07-22T01:46:47;99768.84;;;17.74;82.98
74915;BME280;63475;45.140;-75.616;2023-07-22T01:48:50;99768.41;;;17.70;83.02
74915;BME280;63475;45.140;-75.616;2023-07-22T01:50:52;99775.16;;;17.66;83.16
74915;BME280;63475;45.140;-75.616;2023-07-22T01:52:55;99766.56;;;17.62;83.38
74915;BME280;63475;45.140;-75.616;2023-07-22T01:54:58;99774.66;;;17.62;83.57
74915;BME280;63475;45.140;-75.616;2023-07-22T01:57:00;99773.16;;;17.60;83.35
74915;BME280;63475;45.140;-75.616;2023-07-22T01:59:03;99775.00;;;17.59;83.24
74915;BME280;63475;45.140;-75.616;2023-07-22T02:01:06;99775.66;;;17.61;83.28
74915;BME280;63475;45.140;-75.616;2023-07-22T02:03:09;99766.38;;;17.64;83.27
74915;BME280;63475;45.140;-75.616;2023-07-22T02:05:12;99765.19;;;17.67;82.90
74915;BME280;63475;45.140;-75.616;2023-07-22T02:07:15;99761.50;;;17.68;83.04
74915;BME280;63475;45.140;-75.616;2023-07-22T02:09:18;99764.84;;;17.70;82.67
74915;BME280;63475;45.140;-75.616;2023-07-22T02:11:20;99767.34;;;17.71;82.57
74915;BME280;63475;45.140;-75.616;2023-07-22T02:13:23;99769.03;;;17.72;82.27
74915;BME280;63475;45.140;-75.616;2023-07-22T02:15:25;99764.13;;;17.76;82.27
74915;BME280;63475;45.140;-75.616;2023-07-22T02:17:28;99762.44;;;17.75;82.21
74915;BME280;63475;45.140;-75.616;2023-07-22T02:19:33;99760.59;;;17.75;81.95
74915;BME280;63475;45.140;-75.616;2023-07-22T02:21:35;99755.03;;;17.77;82.00
74915;BME280;63475;45.140;-75.616;2023-07-22T02:23:38;99760.25;;;17.78;81.64
74915;BME280;63475;45.140;-75.616;2023-07-22T02:25:40;99762.09;;;17.78;81.53
74915;BME280;63475;45.140;-75.616;2023-07-22T02:27:43;99759.41;;;17.78;81.42
74915;BME280;63475;45.140;-75.616;2023-07-22T02:29:46;99756.03;;;17.76;81.29
74915;BME280;63475;45.140;-75.616;2023-07-22T02:31:48;99751.66;;;17.75;81.12
74915;BME280;63475;45.140;-75.616;2023-07-22T02:33:51;99748.28;;;17.73;81.11
74915;BME280;63475;45.140;-75.616;2023-07-22T02:35:54;99736.84;;;17.71;80.98
74915;BME280;63475;45.140;-75.616;2023-07-22T02:37:57;99737.03;;;17.69;80.82
74915;BME280;63475;45.140;-75.616;2023-07-22T02:39:59;99739.91;;;17.68;80.96
74915;BME280;63475;45.140;-75.616;2023-07-22T02:42:02;99739.91;;;17.68;80.80
74915;BME280;63475;45.140;-75.616;2023-07-22T02:44:04;99741.09;;;17.65;80.89
74915;BME280;63475;45.140;-75.616;2023-07-22T02:46:07;99748.53;;;17.63;81.00
74915;BME280;63475;45.140;-75.616;2023-07-22T02:48:12;99746.00;;;17.61;80.87
74915;BME280;63475;45.140;-75.616;2023-07-22T02:50:15;99738.94;;;17.60;80.70
74915;BME280;63475;45.140;-75.616;2023-07-22T02:52:18;99743.66;;;17.58;80.63
74915;BME280;63475;45.140;-75.616;2023-07-22T02:54:20;99742.13;;;17.56;80.65
74915;BME280;63475;45.140;-75.616;2023-07-22T02:56:23;99741.63;;;17.52;80.86
74915;BME280;63475;45.140;-75.616;2023-07-22T02:58:26;99742.00;;;17.49;80.91
74915;BME280;63475;45.140;-75.616;2023-07-22T03:00:29;99746.38;;;17.50;80.86
74915;BME280;63475;45.140;-75.616;2023-07-22T03:02:32;99738.66;;;17.47;81.18
74915;BME280;63475;45.140;-75.616;2023-07-22T03:04:34;99735.28;;;17.45;80.83
74915;BME280;63475;45.140;-75.616;2023-07-22T03:06:37;99730.06;;;17.44;81.15
74915;BME280;63475;45.140;-75.616;2023-07-22T03:08:39;99728.56;;;17.41;81.04
74915;BME280;63475;45.140;-75.616;2023-07-22T03:10:42;99725.88;;;17.41;80.91
74915;BME280;63475;45.140;-75.616;2023-07-22T03:12:50;99733.09;;;17.41;80.76
74915;BME280;63475;45.140;-75.616;2023-07-22T03:14:57;99733.28;;;17.39;80.60
74915;BME280;63475;45.140;-75.616;2023-07-22T03:16:59;99741.38;;;17.39;80.60
74915;BME280;63475;45.140;-75.616;2023-07-22T03:19:02;99739.00;;;17.36;80.56
74915;BME280;63475;45.140;-75.616;2023-07-22T03:21:05;99738.50;;;17.33;80.38
74915;BME280;63475;45.140;-75.616;2023-07-22T03:23:08;99739.53;;;17.32;80.36
74915;BME280;63475;45.140;-75.616;2023-07-22T03:25:11;99739.03;;;17.28;80.23
74915;BME280;63475;45.140;-75.616;2023-07-22T03:27:14;99737.50;;;17.25;80.39
74915;BME280;63475;45.140;-75.616;2023-07-22T03:29:19;99745.81;;;17.24;80.30
74915;BME280;63475;45.140;-75.616;2023-07-22T03:31:22;99732.31;;;17.24;80.14
74915;BME280;63475;45.140;-75.616;2023-07-22T03:33:24;99740.41;;;17.24;80.22
74915;BME280;63475;45.140;-75.616;2023-07-22T03:35:27;99747.16;;;17.20;80.02
74915;BME280;63475;45.140;-75.616;2023-07-22T03:37:30;99737.72;;;17.16;79.99
74915;BME280;63475;45.140;-75.616;2023-07-22T03:39:33;99740.41;;;17.16;80.14
74915;BME280;63475;45.140;-75.616;2023-07-22T03:41:36;99729.81;;;17.14;80.00
74915;BME280;63475;45.140;-75.616;2023-07-22T03:43:38;99738.25;;;17.11;80.33
74915;BME280;63475;45.140;-75.616;2023-07-22T03:45:41;99730.31;;;17.10;80.14
74915;BME280;63475;45.140;-75.616;2023-07-22T03:47:46;99727.09;;;17.06;80.14
74915;BME280;63475;45.140;-75.616;2023-07-22T03:49:49;99734.16;;;17.07;79.88
74915;BME280;63475;45.140;-75.616;2023-07-22T03:51:51;99731.66;;;17.06;80.00
74915;BME280;63475;45.140;-75.616;2023-07-22T03:53:54;99735.72;;;17.02;80.20
74915;BME280;63475;45.140;-75.616;2023-07-22T03:55:56;99727.63;;;17.02;79.93
74915;BME280;63475;45.140;-75.616;2023-07-22T03:57:59;99727.63;;;17.02;80.03
74915;BME280;63475;45.140;-75.616;2023-07-22T04:00:02;99719.56;;;17.02;79.93
74915;BME280;63475;45.140;-75.616;2023-07-22T04:02:11;99721.41;;;17.01;79.87
74915;BME280;63475;45.140;-75.616;2023-07-22T04:04:13;99716.00;;;17.01;80.07
74915;BME280;63475;45.140;-75.616;2023-07-22T04:06:16;99716.84;;;17.02;80.19
74915;BME280;63475;45.140;-75.616;2023-07-22T04:08:18;99723.25;;;17.01;79.89
74915;BME280;63475;45.140;-75.616;2023-07-22T04:10:21;99716.84;;;17.02;79.93
74915;BME280;63475;45.140;-75.616;2023-07-22T04:12:24;99729.28;;;17.03;79.75
74915;BME280;63475;45.140;-75.616;2023-07-22T04:14:27;99724.28;;;17.00;79.92
74915;BME280;63475;45.140;-75.616;2023-07-22T04:16:29;99727.97;;;16.99;79.83
74915;BME280;63475;45.140;-75.616;2023-07-22T04:18:32;99717.19;;;16.99;79.88
74915;BME280;63475;45.140;-75.616;2023-07-22T04:20:36;99713.00;;;16.96;79.90
74915;BME280;63475;45.140;-75.616;2023-07-22T04:22:39;99726.63;;;16.94;80.05
74915;BME280;63475;45.140;-75.616;2023-07-22T04:24:42;99722.09;;;16.95;80.04
74915;BME280;63475;45.140;-75.616;2023-07-22T04:26:44;99721.25;;;16.94;79.86
74915;BME280;63475;45.140;-75.616;2023-07-22T04:28:47;99724.28;;;16.91;79.99
74915;BME280;63475;45.140;-75.616;2023-07-22T04:30:57;99726.97;;;16.91;79.65
74915;BME280;63475;45.140;-75.616;2023-07-22T04:33:00;99721.06;;;16.88;79.78
74915;BME280;63475;45.140;-75.616;2023-07-22T04:35:05;99723.25;;;16.84;80.02
74915;BME280;63475;45.140;-75.616;2023-07-22T04:37:09;99719.72;;;16.84;79.72
74915;BME280;63475;45.140;-75.616;2023-07-22T04:39:11;99725.13;;;16.84;79.60
74915;BME280;63475;45.140;-75.616;2023-07-22T04:41:14;99719.22;;;16.80;79.86
74915;BME280;63475;45.140;-75.616;2023-07-22T04:43:17;99724.63;;;16.80;79.83
74915;BME280;63475;45.140;-75.616;2023-07-22T04:45:24;99717.56;;;16.79;79.84
74915;BME280;63475;45.140;-75.616;2023-07-22T04:47:26;99716.72;;;16.79;79.72
74915;BME280;63475;45.140;-75.616;2023-07-22T04:49:29;99710.84;;;16.75;79.92
74915;BME280;63475;45.140;-75.616;2023-07-22T04:51:32;99712.53;;;16.76;79.94
74915;BME280;63475;45.140;-75.616;2023-07-22T04:53:35;99708.31;;;16.74;79.76
74915;BME280;63475;45.140;-75.616;2023-07-22T04:55:37;99719.94;;;16.74;79.90
74915;BME280;63475;45.140;-75.616;2023-07-22T04:57:42;99714.88;;;16.71;80.06
74915;BME280;63475;45.140;-75.616;2023-07-22T04:59:47;99719.59;;;16.69;79.82
74915;BME280;63475;45.140;-75.616;2023-07-22T05:01:49;99715.22;;;16.68;79.84
74915;BME280;63475;45.140;-75.616;2023-07-22T05:03:52;99714.53;;;16.66;80.05
74915;BME280;63475;45.140;-75.616;2023-07-22T05:05:57;99709.16;;;16.66;79.78
74915;BME280;63475;45.140;-75.616;2023-07-22T05:08:00;99700.41;;;16.64;79.81
74915;BME280;63475;45.140;-75.616;2023-07-22T05:10:05;99699.72;;;16.62;79.99
74915;BME280;63475;45.140;-75.616;2023-07-22T05:12:09;99708.81;;;16.61;79.88
74915;BME280;63475;45.140;-75.616;2023-07-22T05:14:11;99695.69;;;16.58;80.01
74915;BME280;63475;45.140;-75.616;2023-07-22T05:16:14;99698.91;;;16.53;80.15
74915;BME280;63475;45.140;-75.616;2023-07-22T05:18:17;99698.06;;;16.53;80.10
74915;BME280;63475;45.140;-75.616;2023-07-22T05:20:19;99697.41;;;16.51;80.18
74915;BME280;63475;45.140;-75.616;2023-07-22T05:22:22;99699.41;;;16.49;80.57
74915;BME280;63475;45.140;-75.616;2023-07-22T05:24:25;99698.75;;;16.47;80.35
74915;BME280;63475;45.140;-75.616;2023-07-22T05:26:27;99706.13;;;16.45;80.46
74915;BME280;63475;45.140;-75.616;2023-07-22T05:28:30;99702.78;;;16.43;80.22
74915;BME280;63475;45.140;-75.616;2023-07-22T05:30:33;99703.63;;;16.43;80.30
74915;BME280;63475;45.140;-75.616;2023-07-22T05:32:37;99696.72;;;16.41;80.28
74915;BME280;63475;45.140;-75.616;2023-07-22T05:34:39;99695.88;;;16.40;80.54
74915;BME280;63475;45.140;-75.616;2023-07-22T05:36:42;99697.88;;;16.38;80.49
74915;BME280;63475;45.140;-75.616;2023-07-22T05:38:45;99702.59;;;16.36;80.56
74915;BME280;63475;45.140;-75.616;2023-07-22T05:40:47;99706.13;;;16.37;80.43
74915;BME280;63475;45.140;-75.616;2023-07-22T05:42:50;99706.50;;;16.34;80.51
74915;BME280;63475;45.140;-75.616;2023-07-22T05:44:54;99711.88;;;16.34;80.31
74915;BME280;63475;45.140;-75.616;2023-07-22T05:46:57;99712.19;;;16.31;80.50
74915;BME280;63475;45.140;-75.616;2023-07-22T05:48:59;99703.44;;;16.29;80.71
74915;BME280;63475;45.140;-75.616;2023-07-22T05:51:02;99707.16;;;16.27;80.65
74915;BME280;63475;45.140;-75.616;2023-07-22T05:53:05;99707.16;;;16.27;80.64
74915;BME280;63475;45.140;-75.616;2023-07-22T05:55:07;99708.16;;;16.26;80.51
74915;BME280;63475;45.140;-75.616;2023-07-22T05:57:10;99703.78;;;16.25;80.32
74915;BME280;63475;45.140;-75.616;2023-07-22T05:59:13;99701.41;;;16.22;80.47
74915;BME280;63475;45.140;-75.616;2023-07-22T06:01:18;99703.44;;;16.20;80.67
74915;BME280;63475;45.140;-75.616;2023-07-22T06:03:21;99707.28;;;16.18;80.63
74915;BME280;63475;45.140;-75.616;2023-07-22T06:05:24;99711.84;;;16.17;80.60
74915;BME280;63475;45.140;-75.616;2023-07-22T06:07:26;99713.53;;;16.18;80.50
74915;BME280;63475;45.140;-75.616;2023-07-22T06:09:29;99715.53;;;16.16;80.72
74915;BME280;63475;45.140;-75.616;2023-07-22T06:11:32;99719.22;;;16.15;80.89
74915;BME280;63475;45.140;-75.616;2023-07-22T06:13:34;99718.38;;;16.15;80.67
74915;BME280;63475;45.140;-75.616;2023-07-22T06:15:37;99718.53;;;16.13;80.99
74915;BME280;63475;45.140;-75.616;2023-07-22T06:17:39;99720.38;;;16.13;80.89
74915;BME280;63475;45.140;-75.616;2023-07-22T06:19:42;99713.84;;;16.15;80.81
74915;BME280;63475;45.140;-75.616;2023-07-22T06:21:45;99713.00;;;16.15;80.57
74915;BME280;63475;45.140;-75.616;2023-07-22T06:23:47;99720.59;;;16.19;80.60
74915;BME280;63475;45.140;-75.616;2023-07-22T06:25:50;99711.84;;;16.17;80.80
74915;BME280;63475;45.140;-75.616;2023-07-22T06:27:52;99713.84;;;16.15;80.78
74915;BME280;63475;45.140;-75.616;2023-07-22T06:29:56;99705.63;;;16.17;81.05
74915;BME280;63475;45.140;-75.616;2023-07-22T06:32:00;99712.84;;;16.16;80.86
74915;BME280;63475;45.140;-75.616;2023-07-22T06:34:03;99703.94;;;16.16;81.18
74915;BME280;63475;45.140;-75.616;2023-07-22T06:36:05;99703.75;;;16.17;80.82
74915;BME280;63475;45.140;-75.616;2023-07-22T06:38:08;99702.91;;;16.17;80.73
74915;BME280;63475;45.140;-75.616;2023-07-22T06:40:11;99704.78;;;16.16;80.88
74915;BME280;63475;45.140;-75.616;2023-07-22T06:42:13;99709.31;;;16.16;80.83
74915;BME280;63475;45.140;-75.616;2023-07-22T06:44:16;99699.69;;;16.13;81.18
74915;BME280;63475;45.140;-75.616;2023-07-22T06:46:18;99698.84;;;16.13;81.12
74915;BME280;63475;45.140;-75.616;2023-07-22T06:48:21;99702.25;;;16.15;80.82
74915;BME280;63475;45.140;-75.616;2023-07-22T06:50:24;99699.69;;;16.13;80.87
74915;BME280;63475;45.140;-75.616;2023-07-22T06:52:27;99696.88;;;16.15;80.78
74915;BME280;63475;45.140;-75.616;2023-07-22T06:54:29;99692.31;;;16.15;80.59
74915;BME280;63475;45.140;-75.616;2023-07-22T06:56:32;99704.94;;;16.15;80.60
74915;BME280;63475;45.140;-75.616;2023-07-22T06:58:35;99700.53;;;16.14;80.70
74915;BME280;63475;45.140;-75.616;2023-07-22T07:00:37;99696.34;;;16.11;80.78
74915;BME280;63475;45.140;-75.616;2023-07-22T07:02:40;99701.06;;;16.09;80.50
74915;BME280;63475;45.140;-75.616;2023-07-22T07:04:43;99691.47;;;16.07;80.45
74915;BME280;63475;45.140;-75.616;2023-07-22T07:06:45;99703.75;;;16.09;80.61
74915;BME280;63475;45.140;-75.616;2023-07-22T07:08:48;99696.00;;;16.06;80.37
74915;BME280;63475;45.140;-75.616;2023-07-22T07:10:52;99699.69;;;16.05;80.54
74915;BME280;63475;45.140;-75.616;2023-07-22T07:12:57;99702.06;;;16.08;80.27
74915;BME280;63475;45.140;-75.616;2023-07-22T07:15:00;99704.06;;;16.06;80.40
74915;BME280;63475;45.140;-75.616;2023-07-22T07:17:03;99694.66;;;16.02;80.63
74915;BME280;63475;45.140;-75.616;2023-07-22T07:19:05;99700.53;;;16.06;80.58
74915;BME280;63475;45.140;-75.616;2023-07-22T07:21:10;99705.06;;;16.05;80.65
74915;BME280;63475;45.140;-75.616;2023-07-22T07:23:13;99693.63;;;16.03;80.27
74915;BME280;63475;45.140;-75.616;2023-07-22T07:25:18;99702.72;;;16.02;80.39
74915;BME280;63475;45.140;-75.616;2023-07-22T07:27:21;99703.72;;;16.01;80.44
74915;BME280;63475;45.140;-75.616;2023-07-22T07:29:23;99697.66;;;15.99;80.47
74915;BME280;63475;45.140;-75.616;2023-07-22T07:31:46;99698.66;;;15.98;80.41
74915;BME280;63475;45.140;-75.616;2023-07-22T07:33:48;99704.22;;;15.97;80.64
74915;BME280;63475;45.140;-75.616;2023-07-22T07:35:51;99700.00;;;15.94;80.62
74915;BME280;63475;45.140;-75.616;2023-07-22T07:37:53;99695.63;;;15.93;80.63
74915;BME280;63475;45.140;-75.616;2023-07-22T07:39:56;99693.09;;;15.91;80.58
74915;BME280;63475;45.140;-75.616;2023-07-22T07:42:01;99693.25;;;15.90;80.60
74915;BME280;63475;45.140;-75.616;2023-07-22T07:44:04;99686.41;;;15.87;80.65
74915;BME280;63475;45.140;-75.616;2023-07-22T07:48:25;99684.03;;;15.84;80.61
74915;BME280;63475;45.140;-75.616;2023-07-22T07:50:27;99682.34;;;15.83;80.68
74915;BME280;63475;45.140;-75.616;2023-07-22T07:52:30;99685.19;;;15.82;80.54
74915;BME280;63475;45.140;-75.616;2023-07-22T07:54:32;99688.88;;;15.81;80.86
74915;BME280;63475;45.140;-75.616;2023-07-22T07:56:35;99693.44;;;15.80;80.83
74915;BME280;63475;45.140;-75.616;2023-07-22T07:58:38;99687.22;;;15.80;80.82
74915;BME280;63475;45.140;-75.616;2023-07-22T08:00:40;99696.44;;;15.77;80.68
74915;BME280;63475;45.140;-75.616;2023-07-22T08:02:43;99697.28;;;15.78;80.76
74915;BME280;63475;45.140;-75.616;2023-07-22T08:04:45;99704.50;;;15.77;80.78
74915;BME280;63475;45.140;-75.616;2023-07-22T08:06:49;99708.19;;;15.76;80.43
74915;BME280;63475;45.140;-75.616;2023-07-22T08:08:51;99694.06;;;15.74;80.59
74915;BME280;63475;45.140;-75.616;2023-07-22T08:11:04;99707.34;;;15.76;80.53
74915;BME280;63475;45.140;-75.616;2023-07-22T08:13:07;99704.84;;;15.74;80.80
74915;BME280;63475;45.140;-75.616;2023-07-22T08:15:10;99702.31;;;15.73;80.62
74915;BME280;63475;45.140;-75.616;2023-07-22T08:17:12;99706.00;;;15.72;80.69
74915;BME280;63475;45.140;-75.616;2023-07-22T08:19:15;99706.00;;;15.72;80.78
74915;BME280;63475;45.140;-75.616;2023-07-22T08:21:18;99713.22;;;15.71;80.61
74915;BME280;63475;45.140;-75.616;2023-07-22T08:23:22;99712.38;;;15.71;80.43
74915;BME280;63475;45.140;-75.616;2023-07-22T08:25:25;99714.22;;;15.70;80.63
74915;BME280;63475;45.140;-75.616;2023-07-22T08:27:27;99714.38;;;15.69;80.64
74915;BME280;63475;45.140;-75.616;2023-07-22T08:29:30;99713.75;;;15.67;80.66
74915;BME280;63475;45.140;-75.616;2023-07-22T08:31:32;99720.75;;;15.68;80.27
74915;BME280;63475;45.140;-75.616;2023-07-22T08:33:35;99730.53;;;15.69;80.65
74915;BME280;63475;45.140;-75.616;2023-07-22T08:35:43;99728.19;;;15.66;80.38
74915;BME280;63475;45.140;-75.616;2023-07-22T08:37:45;99732.88;;;15.64;80.47
74915;BME280;63475;45.140;-75.616;2023-07-22T08:39:49;99737.25;;;15.65;80.26
74915;BME280;63475;45.140;-75.616;2023-07-22T08:41:52;99737.25;;;15.65;80.38
74915;BME280;63475;45.140;-75.616;2023-07-22T08:43:59;99735.56;;;15.64;80.23
74915;BME280;63475;45.140;-75.616;2023-07-22T08:46:05;99737.25;;;15.65;80.02
74915;BME280;63475;45.140;-75.616;2023-07-22T08:48:09;99739.09;;;15.64;80.22
74915;BME280;63475;45.140;-75.616;2023-07-22T08:50:20;99735.56;;;15.64;80.03
74915;BME280;63475;45.140;-75.616;2023-07-22T08:52:23;99742.94;;;15.62;80.41
74915;BME280;63475;45.140;-75.616;2023-07-22T08:54:27;99746.31;;;15.64;80.37
74915;BME280;63475;45.140;-75.616;2023-07-22T08:56:30;99744.63;;;15.63;80.21
74915;BME280;63475;45.140;-75.616;2023-07-22T08:58:34;99749.16;;;15.62;80.21
74915;BME280;63475;45.140;-75.616;2023-07-22T09:00:39;99752.84;;;15.61;80.53
74915;BME280;63475;45.140;-75.616;2023-07-22T09:02:42;99757.38;;;15.61;80.37
74915;BME280;63475;45.140;-75.616;2023-07-22T09:04:46;99753.03;;;15.59;80.24
74915;BME280;63475;45.140;-75.616;2023-07-22T09:06:48;99756.56;;;15.60;80.44
74915;BME280;63475;45.140;-75.616;2023-07-22T09:08:51;99758.56;;;15.58;80.68
74915;BME280;63475;45.140;-75.616;2023-07-22T09:10:55;99761.41;;;15.56;80.58
74915;BME280;63475;45.140;-75.616;2023-07-22T09:13:00;99763.25;;;15.56;80.50
74915;BME280;63475;45.140;-75.616;2023-07-22T09:15:03;99757.19;;;15.54;80.61
74915;BME280;63475;45.140;-75.616;2023-07-22T09:17:06;99763.41;;;15.54;80.67
74915;BME280;63475;45.140;-75.616;2023-07-22T09:19:09;99773.47;;;15.52;80.59
74915;BME280;63475;45.140;-75.616;2023-07-22T09:21:11;99773.47;;;15.52;80.88
74915;BME280;63475;45.140;-75.616;2023-07-22T09:23:14;99773.47;;;15.52;80.57
74915;BME280;63475;45.140;-75.616;2023-07-22T09:25:19;99775.47;;;15.50;80.93
74915;BME280;63475;45.140;-75.616;2023-07-22T09:27:34;99777.31;;;15.50;80.67
74915;BME280;63475;45.140;-75.616;2023-07-22T09:29:40;99775.09;;;15.45;80.81
74915;BME280;63475;45.140;-75.616;2023-07-22T09:31:53;99777.16;;;15.43;80.74
74915;BME280;63475;45.140;-75.616;2023-07-22T09:34:09;99786.22;;;15.42;81.09
74915;BME280;63475;45.140;-75.616;2023-07-22T09:36:12;99783.69;;;15.41;81.14
74915;BME280;63475;45.140;-75.616;2023-07-22T09:38:25;99778.47;;;15.39;81.07
74915;BME280;63475;45.140;-75.616;2023-07-22T09:40:27;99778.47;;;15.39;81.27
74915;BME280;63475;45.140;-75.616;2023-07-22T09:42:30;99776.25;;;15.35;81.33
74915;BME280;63475;45.140;-75.616;2023-07-22T09:44:33;99779.47;;;15.38;81.19
74915;BME280;63475;45.140;-75.616;2023-07-22T09:46:36;99787.53;;;15.38;81.56
74915;BME280;63475;45.140;-75.616;2023-07-22T09:48:43;99788.53;;;15.37;81.22
74915;BME280;63475;45.140;-75.616;2023-07-22T09:50:56;99792.22;;;15.36;81.66
74915;BME280;63475;45.140;-75.616;2023-07-22T09:52:59;99795.22;;;15.33;81.43
74915;BME280;63475;45.140;-75.616;2023-07-22T09:55:05;99801.59;;;15.32;81.41
74915;BME280;63475;45.140;-75.616;2023-07-22T09:57:08;99803.59;;;15.30;81.51
74915;BME280;63475;45.140;-75.616;2023-07-22T09:59:18;99802.75;;;15.30;81.94
74915;BME280;63475;45.140;-75.616;2023-07-22T10:01:25;99796.53;;;15.29;81.82
74915;BME280;63475;45.140;-75.616;2023-07-22T10:03:29;99798.22;;;15.30;81.75
74915;BME280;63475;45.140;-75.616;2023-07-22T10:05:35;99800.91;;;15.30;81.88
74915;BME280;63475;45.140;-75.616;2023-07-22T10:07:38;99807.13;;;15.31;81.84
74915;BME280;63475;45.140;-75.616;2023-07-22T10:09:42;99804.59;;;15.29;81.72
74915;BME280;63475;45.140;-75.616;2023-07-22T10:11:45;99817.34;;;15.27;81.98
74915;BME280;63475;45.140;-75.616;2023-07-22T10:13:49;99808.59;;;15.25;81.71
74915;BME280;63475;45.140;-75.616;2023-07-22T10:15:52;99814.81;;;15.25;81.97
74915;BME280;63475;45.140;-75.616;2023-07-22T10:17:56;99827.09;;;15.28;82.00
74915;BME280;63475;45.140;-75.616;2023-07-22T10:19:59;99817.03;;;15.30;81.89
74915;BME280;63475;45.140;-75.616;2023-07-22T10:22:02;99817.72;;;15.32;81.50
74915;BME280;63475;45.140;-75.616;2023-07-22T10:24:05;99818.56;;;15.33;81.51
74915;BME280;63475;45.140;-75.616;2023-07-22T10:26:10;99822.25;;;15.32;81.68
74915;BME280;63475;45.140;-75.616;2023-07-22T10:28:16;99815.03;;;15.32;81.65
74915;BME280;63475;45.140;-75.616;2023-07-22T10:30:19;99822.56;;;15.29;81.74
74915;BME280;63475;45.140;-75.616;2023-07-22T10:32:22;99820.03;;;15.27;81.89
74915;BME280;63475;45.140;-75.616;2023-07-22T10:34:25;99814.66;;;15.27;81.91
74915;BME280;63475;45.140;-75.616;2023-07-22T10:36:29;99819.03;;;15.28;82.08
74915;BME280;63475;45.140;-75.616;2023-07-22T10:38:34;99821.72;;;15.28;81.98
74915;BME280;63475;45.140;-75.616;2023-07-22T10:40:53;99813.66;;;15.28;81.68